Time;durP1;ratioP1;P1;durP2;ratioP2;P2;SDS_P1;SDS_P2;PMS_P1;PMS_P2;Temp;Humidity;BMP_temperature;BMP_pressure;BME280_temperature;BME280_humidity;BME280_pressure;Samples;Min_cycle;Max_cycle;Signal;HPM_P1;HPM_P2
2022/03/15 00:00:47;;;;;;;88.55;48.52;;;;;;;2.90;62.17;102035.86;1641022;87;27466;-78
2022/03/15 00:03:13;;;;;;;100.65;52.10;;;;;;;2.87;62.16;102031.61;1625896;87;26703;-78
2022/03/15 00:05:40;;;;;;;98.37;51.77;;;;;;;2.86;62.19;102033.05;1645414;85;25849;-78
2022/03/15 00:08:08;;;;;;;91.82;50.23;;;;;;;2.81;62.14;102025.88;1641114;86;26244;-78
2022/03/15 00:10:34;;;;;;;92.65;50.78;;;;;;;2.78;62.27;102026.92;1642934;86;25748;-78
2022/03/15 00:13:00;;;;;;;99.10;51.42;;;;;;;2.72;62.26;102029.98;1622417;87;27524;-78
2022/03/15 00:15:27;;;;;;;99.37;53.10;;;;;;;2.65;62.37;102030.01;1650571;85;26120;-77
2022/03/15 00:17:54;;;;;;;98.92;52.58;;;;;;;2.62;62.44;102026.27;1628899;87;25603;-78
2022/03/15 00:20:23;;;;;;;97.60;51.92;;;;;;;2.59;62.39;102029.09;1605849;88;26716;-77
2022/03/15 00:22:52;;;;;;;93.05;51.98;;;;;;;2.58;62.63;102031.39;1608735;88;26373;-77
2022/03/15 00:25:19;;;;;;;90.28;49.45;;;;;;;2.54;62.69;102035.66;1609298;88;28273;-78
2022/03/15 00:27:54;;;;;;;92.20;50.10;;;;;;;2.51;62.78;102027.44;1648950;86;25784;-78
2022/03/15 00:30:22;;;;;;;88.33;47.55;;;;;;;2.51;63.03;102024.79;1640866;86;26722;-77
2022/03/15 00:32:50;;;;;;;83.82;47.43;;;;;;;2.47;63.37;102026.41;1612706;88;25841;-78
2022/03/15 00:35:18;;;;;;;94.15;49.80;;;;;;;2.38;63.78;102031.83;1612845;88;25911;-79
2022/03/15 00:37:49;;;;;;;85.92;48.35;;;;;;;2.28;64.13;102030.73;1613322;87;27464;-79
2022/03/15 00:40:18;;;;;;;84.97;47.17;;;;;;;2.21;64.41;102034.70;1629020;87;25731;-80
2022/03/15 00:42:53;;;;;;;84.20;48.30;;;;;;;2.19;64.66;102026.88;1629080;87;26009;-79
2022/03/15 00:45:27;;;;;;;94.58;47.55;;;;;;;2.19;64.87;102024.70;1611518;88;25827;-75
2022/03/15 00:47:56;;;;;;;83.30;46.08;;;;;;;2.18;64.64;102031.78;1611804;88;26604;-77
2022/03/15 00:50:23;;;;;;;80.20;45.60;;;;;;;2.17;64.67;102024.81;1604891;88;27493;-77
2022/03/15 00:52:50;;;;;;;88.97;47.45;;;;;;;2.17;64.60;102022.64;1612792;88;26319;-78
2022/03/15 00:55:17;;;;;;;84.92;47.20;;;;;;;2.15;64.52;102017.45;1628322;86;25805;-77
2022/03/15 00:57:44;;;;;;;89.20;47.98;;;;;;;2.07;64.79;102015.79;1605693;88;26620;-78
2022/03/15 01:00:15;;;;;;;91.78;50.15;;;;;;;2.04;64.97;102010.69;1610268;88;25785;-76
2022/03/15 01:02:41;;;;;;;94.62;51.77;;;;;;;1.99;65.06;102019.36;1646832;86;28316;-77
2022/03/15 01:05:09;;;;;;;95.70;51.85;;;;;;;1.96;65.04;102006.37;1645968;85;26004;-76
2022/03/15 01:07:37;;;;;;;102.72;52.45;;;;;;;1.94;64.77;102014.86;1625973;87;26034;-78
2022/03/15 01:10:04;;;;;;;96.05;51.95;;;;;;;1.89;64.73;102020.91;1649588;85;26636;-77
2022/03/15 01:12:32;;;;;;;110.17;54.55;;;;;;;1.88;64.86;102024.97;1650704;85;26125;-76
2022/03/15 01:14:58;;;;;;;98.05;53.17;;;;;;;1.79;64.96;102024.22;1637194;86;28482;-77
2022/03/15 01:17:25;;;;;;;103.60;54.05;;;;;;;1.75;65.02;102017.44;1637177;86;25985;-76
2022/03/15 01:19:51;;;;;;;103.17;52.78;;;;;;;1.71;65.06;102015.44;1637662;86;25339;-78
2022/03/15 01:22:18;;;;;;;101.70;53.83;;;;;;;1.68;65.23;102016.97;1637208;86;26668;-79
2022/03/15 01:24:44;;;;;;;92.00;50.73;;;;;;;1.68;65.49;102016.11;1635001;86;25973;-76
2022/03/15 01:27:12;;;;;;;98.78;51.00;;;;;;;1.65;65.50;102013.18;1636047;86;27484;-76
2022/03/15 01:29:38;;;;;;;99.67;51.37;;;;;;;1.63;65.57;102011.11;1639637;86;25844;-78
2022/03/15 01:32:05;;;;;;;94.97;51.33;;;;;;;1.61;65.53;102025.34;1642353;86;25850;-77
2022/03/15 01:34:32;;;;;;;98.07;52.15;;;;;;;1.55;65.60;102019.52;1651523;85;25967;-77
2022/03/15 01:36:58;;;;;;;90.65;49.25;;;;;;;1.54;65.76;102021.77;1608930;88;26703;-77
2022/03/15 01:39:26;;;;;;;84.70;46.85;;;;;;;1.52;65.96;102020.16;1647145;85;28357;-76
2022/03/15 01:41:54;;;;;;;93.35;49.30;;;;;;;1.51;66.06;102018.02;1640643;85;26613;-76
2022/03/15 01:44:22;;;;;;;91.78;47.10;;;;;;;1.50;66.16;102024.69;1648464;85;25862;-77
2022/03/15 01:46:50;;;;;;;89.55;48.17;;;;;;;1.51;66.42;102025.94;1608898;88;26869;-78
2022/03/15 01:49:21;;;;;;;89.42;47.58;;;;;;;1.47;66.50;102026.22;1608613;88;25992;-77
2022/03/15 01:51:50;;;;;;;88.95;46.68;;;;;;;1.49;66.66;102025.65;1641393;87;27495;-77
2022/03/15 01:54:17;;;;;;;84.55;46.55;;;;;;;1.47;66.85;102027.53;1643396;86;26032;-77
2022/03/15 01:56:43;;;;;;;86.95;45.40;;;;;;;1.42;66.97;102019.04;1575358;87;25905;-78
2022/03/15 01:59:13;;;;;;;82.45;46.23;;;;;;;1.39;66.88;102021.39;1638617;86;25857;-77
2022/03/15 02:01:42;;;;;;;87.92;46.65;;;;;;;1.36;66.85;102017.63;1650200;86;26438;-78
2022/03/15 02:04:09;;;;;;;88.58;47.43;;;;;;;1.37;66.65;102015.81;1642090;87;27460;-78
2022/03/15 02:06:38;;;;;;;84.47;45.03;;;;;;;1.38;66.61;102018.39;1642530;87;26639;-76
2022/03/15 02:09:14;;;;;;;86.70;46.23;;;;;;;1.39;66.50;102019.24;1643290;85;25811;-76
2022/03/15 02:11:46;;;;;;;88.78;47.25;;;;;;;1.39;66.64;102013.47;1640626;86;26528;-77
2022/03/15 02:14:10;;;;;;;91.30;47.23;;;;;;;1.39;66.73;102019.24;1645207;85;25782;-78
2022/03/15 02:16:36;;;;;;;89.20;48.33;;;;;;;1.40;66.62;102013.00;1625113;87;28031;-78
2022/03/15 02:19:04;;;;;;;80.45;45.43;;;;;;;1.38;66.57;102011.79;1652935;85;26048;-78
2022/03/15 02:21:30;;;;;;;88.82;47.60;;;;;;;1.41;66.58;102016.86;1648523;85;25886;-77
2022/03/15 02:23:57;;;;;;;83.03;44.70;;;;;;;1.44;66.61;102003.95;1640279;87;26490;-77
2022/03/15 02:26:23;;;;;;;83.40;44.00;;;;;;;1.44;66.32;102016.69;1641172;87;26721;-78
2022/03/15 02:28:52;;;;;;;85.80;44.88;;;;;;;1.44;66.38;102010.55;1641801;87;27539;-78
2022/03/15 02:31:19;;;;;;;86.45;44.73;;;;;;;1.43;66.41;102014.16;1640497;86;26014;-78
2022/03/15 02:33:47;;;;;;;79.87;44.42;;;;;;;1.44;66.23;102019.33;1641259;87;25801;-78
2022/03/15 02:36:15;;;;;;;82.37;45.15;;;;;;;1.44;66.23;102023.28;1641376;87;26677;-77
2022/03/15 02:38:46;;;;;;;85.53;44.53;;;;;;;1.42;66.22;102015.94;1641767;87;25862;-77
2022/03/15 02:41:14;;;;;;;85.40;44.45;;;;;;;1.41;66.29;102019.50;1649993;85;28290;-79
2022/03/15 02:43:42;;;;;;;78.33;42.43;;;;;;;1.38;66.31;102021.03;1648590;85;26111;-78
2022/03/15 02:46:09;;;;;;;86.65;43.48;;;;;;;1.36;66.37;102027.34;1628582;87;25321;-78
2022/03/15 02:48:35;;;;;;;86.10;44.53;;;;;;;1.35;66.50;102027.80;1629617;87;26050;-78
2022/03/15 02:51:08;;;;;;;87.47;44.42;;;;;;;1.33;66.31;102034.11;1643241;86;25838;-77
2022/03/15 02:53:31;;;;;;;88.75;44.95;;;;;;;1.34;66.44;102041.10;1616696;87;27484;-76
2022/03/15 02:55:58;;;;;;;84.65;44.58;;;;;;;1.32;66.58;102025.36;1616544;87;25943;-77
2022/03/15 02:58:24;;;;;;;82.55;44.27;;;;;;;1.32;66.64;102024.05;1649157;86;25873;-76
2022/03/15 03:00:50;;;;;;;81.63;41.75;;;;;;;1.32;66.64;102020.09;1641238;86;25843;-78
2022/03/15 03:03:17;;;;;;;87.90;41.28;;;;;;;1.34;66.55;102018.66;1638909;86;25990;-77
2022/03/15 03:05:43;;;;;;;78.70;41.98;;;;;;;1.34;66.51;102018.20;1641254;86;28216;-78
2022/03/15 03:08:10;;;;;;;76.72;40.88;;;;;;;1.36;66.40;102022.06;1606805;88;25931;-79
2022/03/15 03:10:36;;;;;;;71.45;38.80;;;;;;;1.36;66.26;102021.59;1647840;86;25825;-78
2022/03/15 03:13:03;;;;;;;79.53;41.25;;;;;;;1.31;66.07;102023.66;1651819;85;26552;-78
2022/03/15 03:15:31;;;;;;;78.87;40.05;;;;;;;1.30;65.94;102035.17;1645581;85;26525;-78
2022/03/15 03:17:57;;;;;;;77.53;40.92;;;;;;;1.31;66.07;102035.53;1643177;85;27537;-78
2022/03/15 03:20:24;;;;;;;74.60;40.80;;;;;;;1.33;66.00;102032.33;1641950;86;25819;-77
2022/03/15 03:22:50;;;;;;;76.28;39.55;;;;;;;1.34;65.97;102031.40;1642050;86;26296;-79
2022/03/15 03:25:18;;;;;;;74.90;40.60;;;;;;;1.36;65.90;102021.59;1642250;86;26026;-78
2022/03/15 03:27:46;;;;;;;75.12;39.25;;;;;;;1.39;65.77;102024.03;1641962;86;25805;-78
2022/03/15 03:30:15;;;;;;;78.62;39.90;;;;;;;1.38;65.64;102017.06;1643059;86;29456;-78
2022/03/15 03:32:43;;;;;;;79.15;40.25;;;;;;;1.36;65.50;102020.27;1608968;88;25930;-76
2022/03/15 03:35:09;;;;;;;76.28;39.83;;;;;;;1.37;65.43;102021.09;1613387;88;25976;-78
2022/03/15 03:37:36;;;;;;;77.22;40.78;;;;;;;1.36;65.33;102022.91;1614251;88;25921;-79
2022/03/15 03:40:07;;;;;;;72.75;37.20;;;;;;;1.37;65.28;102029.02;1613307;88;25817;-78
2022/03/15 03:42:33;;;;;;;81.35;40.03;;;;;;;1.38;65.27;102034.69;1622168;87;28406;-77
2022/03/15 03:44:59;;;;;;;73.45;39.55;;;;;;;1.38;65.40;102034.69;1646495;85;25957;-77
2022/03/15 03:47:25;;;;;;;75.42;40.20;;;;;;;1.37;65.39;102028.55;1641775;86;25911;-77
2022/03/15 03:49:52;;;;;;;73.95;40.03;;;;;;;1.37;65.49;102035.16;1644271;86;26030;-77
2022/03/15 03:52:20;;;;;;;79.45;39.23;;;;;;;1.37;65.37;102032.52;1610654;88;25909;-77
2022/03/15 03:54:47;;;;;;;72.75;39.48;;;;;;;1.39;65.33;102039.87;1610539;88;28107;-77
2022/03/15 03:57:13;;;;;;;73.62;40.65;;;;;;;1.40;65.18;102034.98;1611099;88;25883;-77
2022/03/15 03:59:39;;;;;;;75.52;38.85;;;;;;;1.40;65.19;102036.30;1649289;86;25887;-78
2022/03/15 04:02:05;;;;;;;77.30;37.08;;;;;;;1.40;65.18;102037.62;1616148;87;26512;-78
2022/03/15 04:04:31;;;;;;;74.60;37.48;;;;;;;1.34;65.03;102035.82;1651440;85;26142;-77
2022/03/15 04:07:05;;;;;;;75.95;38.08;;;;;;;1.30;65.04;102036.95;1650374;85;27448;-81
2022/03/15 04:09:26;;;;;;;74.95;39.15;;;;;;;1.30;65.13;102033.84;1653835;85;26519;-77
2022/03/15 04:11:52;;;;;;;74.75;39.55;;;;;;;1.30;65.22;102029.89;1640206;87;26504;-78
2022/03/15 04:14:18;;;;;;;70.28;38.10;;;;;;;1.31;65.33;102025.44;1641153;87;26150;-78
2022/03/15 04:16:45;;;;;;;70.20;37.05;;;;;;;1.31;65.37;102021.48;1641594;87;25829;-75
2022/03/15 04:19:11;;;;;;;81.63;41.00;;;;;;;1.30;65.41;102022.44;1641457;87;27531;-78
2022/03/15 04:21:38;;;;;;;72.75;39.45;;;;;;;1.26;65.50;102016.47;1641670;87;26607;-76
2022/03/15 04:24:05;;;;;;;76.72;39.05;;;;;;;1.27;65.66;102014.22;1641026;87;25976;-78
2022/03/15 04:26:31;;;;;;;78.50;41.90;;;;;;;1.29;65.75;102012.80;1641354;87;25825;-77
2022/03/15 04:28:57;;;;;;;76.80;39.65;;;;;;;1.33;65.83;102014.31;1641211;87;26204;-78
2022/03/15 04:31:23;;;;;;;77.70;39.90;;;;;;;1.37;65.77;102010.54;1642098;85;27128;-75
2022/03/15 04:33:50;;;;;;;79.92;39.95;;;;;;;1.41;65.84;102011.58;1644346;85;26491;-76
2022/03/15 04:36:16;;;;;;;75.97;40.65;;;;;;;1.42;65.75;102007.16;1642380;85;26355;-78
2022/03/15 04:38:45;;;;;;;97.85;47.53;;;;;;;1.43;65.91;102002.27;1641663;85;25818;-78
2022/03/15 04:41:11;;;;;;;118.10;52.53;;;;;;;1.46;65.96;102004.70;1643584;85;26024;-80
2022/03/15 04:43:37;;;;;;;103.53;50.58;;;;;;;1.46;65.97;102012.16;1642490;85;27478;-76
2022/03/15 04:46:03;;;;;;;93.90;48.68;;;;;;;1.46;66.21;102016.12;1609605;87;25815;-77
2022/03/15 04:48:30;;;;;;;94.92;47.23;;;;;;;1.44;65.99;102015.36;1608385;87;25968;-76
2022/03/15 04:50:56;;;;;;;89.30;46.65;;;;;;;1.42;66.15;102019.89;1608956;87;26537;-77
2022/03/15 04:53:24;;;;;;;92.42;47.30;;;;;;;1.42;66.33;102017.72;1609898;88;25969;-78
2022/03/15 04:55:50;;;;;;;93.67;48.17;;;;;;;1.42;66.36;102019.89;1647532;86;27497;-77
2022/03/15 04:58:16;;;;;;;96.35;46.92;;;;;;;1.44;66.59;102016.69;1615938;87;25789;-76
2022/03/15 05:00:43;;;;;;;87.92;45.90;;;;;;;1.47;66.61;102023.11;1626777;87;25951;-76
2022/03/15 05:03:09;;;;;;;98.25;47.25;;;;;;;1.48;66.84;102031.86;1642260;87;25928;-78
2022/03/15 05:05:35;;;;;;;91.78;46.53;;;;;;;1.49;67.07;102029.14;1643740;85;26087;-78
2022/03/15 05:08:01;;;;;;;89.28;45.55;;;;;;;1.51;67.11;102031.69;1632678;87;27570;-77
2022/03/15 05:13:14;;;;;;;91.97;44.85;;;;;;;1.60;67.52;102028.48;1609979;87;25904;-77
2022/03/15 05:15:41;;;;;;;76.97;41.50;;;;;;;1.64;67.61;102029.13;1610412;87;26687;-78
2022/03/15 05:18:09;;;;;;;74.67;43.05;;;;;;;1.66;67.69;102024.60;1615526;87;25927;-77
2022/03/15 05:20:35;;;;;;;82.62;43.35;;;;;;;1.70;67.77;102034.03;1619042;87;27494;-77
2022/03/15 05:23:01;;;;;;;78.20;41.00;;;;;;;1.73;68.05;102031.21;1615866;87;25905;-77
2022/03/15 05:25:28;;;;;;;80.17;42.80;;;;;;;1.78;68.25;102031.29;1613836;87;25819;-79
2022/03/15 05:27:54;;;;;;;76.02;40.90;;;;;;;1.82;68.34;102031.97;1633687;86;26521;-80
2022/03/15 05:30:22;;;;;;;76.37;42.30;;;;;;;1.84;68.53;102026.94;1592087;88;25836;-77
2022/03/15 05:32:48;;;;;;;75.47;40.55;;;;;;;1.89;68.54;102020.91;1649286;85;27587;-78
2022/03/15 05:35:16;;;;;;;69.32;38.30;;;;;;;1.93;68.61;102013.62;1647010;85;25815;-76
2022/03/15 05:37:42;;;;;;;71.02;37.80;;;;;;;1.97;68.30;102009.37;1642778;86;26443;-77
2022/03/15 05:40:10;;;;;;;67.37;38.33;;;;;;;2.03;68.21;102016.08;1636109;87;26598;-77
2022/03/15 05:42:36;;;;;;;72.92;37.58;;;;;;;2.09;68.07;102015.68;1641485;85;25915;-78
2022/03/15 05:45:04;;;;;;;72.00;36.65;;;;;;;2.14;68.04;102010.92;1638720;85;27479;-76
2022/03/15 05:47:30;;;;;;;76.05;38.33;;;;;;;2.21;67.97;102018.38;1618833;87;25844;-77
2022/03/15 05:49:57;;;;;;;63.23;35.23;;;;;;;2.25;67.98;102019.02;1645864;85;25929;-76
2022/03/15 05:52:24;;;;;;;66.62;36.90;;;;;;;2.29;67.97;102025.34;1644276;85;26032;-78
2022/03/15 05:54:50;;;;;;;67.78;34.92;;;;;;;2.33;67.96;102022.04;1644753;86;25930;-78
2022/03/15 05:57:16;;;;;;;67.20;36.68;;;;;;;2.38;67.94;102030.97;1644186;86;27548;-77
2022/03/15 05:59:42;;;;;;;64.85;36.55;;;;;;;2.41;67.97;102024.17;1636855;85;25934;-77
2022/03/15 06:02:08;;;;;;;60.43;32.88;;;;;;;2.42;67.94;102020.09;1638937;85;26046;-78
2022/03/15 06:04:35;;;;;;;61.28;34.00;;;;;;;2.47;67.81;102023.77;1635763;85;25982;-77
2022/03/15 06:07:02;;;;;;;65.10;35.65;;;;;;;2.51;67.58;102030.08;1647220;85;25945;-78
2022/03/15 06:09:29;;;;;;;59.40;33.70;;;;;;;2.57;67.48;102019.09;1646403;85;28369;-79
2022/03/15 06:11:55;;;;;;;72.10;35.63;;;;;;;2.63;67.26;102017.36;1646232;85;25994;-77
2022/03/15 06:14:22;;;;;;;56.40;33.53;;;;;;;2.71;67.33;102028.77;1644541;85;25920;-77
2022/03/15 06:16:48;;;;;;;64.67;34.05;;;;;;;2.75;67.06;102032.44;1644685;85;26483;-77
2022/03/15 06:19:15;;;;;;;67.30;34.65;;;;;;;2.81;66.94;102034.67;1647796;85;26031;-78
2022/03/15 06:21:41;;;;;;;60.25;34.40;;;;;;;2.86;66.90;102035.70;1630447;87;28436;-75
2022/03/15 06:24:08;;;;;;;67.45;37.13;;;;;;;2.91;66.77;102029.13;1637638;85;25896;-74
2022/03/15 06:26:36;;;;;;;66.20;35.63;;;;;;;2.97;66.42;102027.89;1653437;85;25905;-76
2022/03/15 06:29:06;;;;;;;64.35;32.60;;;;;;;3.04;66.28;102030.47;1646926;85;25776;-83
2022/03/15 06:31:34;;;;;;;62.55;34.58;;;;;;;3.11;66.26;102027.79;1645380;85;25902;-77
2022/03/15 06:34:01;;;;;;;66.05;36.53;;;;;;;3.22;66.34;102033.20;1628028;87;27457;-77
2022/03/15 06:36:28;;;;;;;68.33;35.25;;;;;;;3.32;66.56;102031.62;1647787;85;25886;-77
2022/03/15 06:38:55;;;;;;;64.15;33.38;;;;;;;3.46;66.67;102038.16;1645789;85;26691;-79
2022/03/15 06:41:21;;;;;;;57.60;33.08;;;;;;;3.59;67.03;102038.97;1652422;85;25817;-77
2022/03/15 06:43:47;;;;;;;56.33;32.08;;;;;;;3.72;67.29;102033.69;1655926;85;26965;-78
2022/03/15 06:46:17;;;;;;;86.80;44.38;;;;;;;3.87;67.57;102033.93;1655595;85;27566;-78
2022/03/15 06:48:43;;;;;;;77.35;40.73;;;;;;;4.03;67.51;102031.01;1650342;85;26310;-78
2022/03/15 06:51:10;;;;;;;105.87;49.90;;;;;;;4.14;67.48;102033.27;1639444;86;25361;-79
2022/03/15 06:53:36;;;;;;;79.87;40.03;;;;;;;4.27;67.61;102039.38;1644640;85;25941;-80
2022/03/15 06:56:04;;;;;;;149.53;60.80;;;;;;;4.39;67.55;102031.84;1649910;85;26142;-79
2022/03/15 06:58:30;;;;;;;76.05;40.35;;;;;;;4.50;67.62;102028.41;1653461;85;27529;-79
2022/03/15 07:00:57;;;;;;;70.60;37.63;;;;;;;4.62;67.61;102020.85;1619017;87;25868;-79
2022/03/15 07:03:23;;;;;;;58.13;32.17;;;;;;;4.74;67.76;102023.94;1645485;85;26228;-79
2022/03/15 07:05:49;;;;;;;58.20;30.77;;;;;;;4.84;67.84;102026.73;1643044;85;26585;-79
2022/03/15 07:08:15;;;;;;;53.15;30.08;;;;;;;4.94;67.87;102033.89;1640974;86;25906;-77
2022/03/15 07:10:42;;;;;;;53.00;31.35;;;;;;;5.03;67.84;102041.64;1626914;87;27462;-79
2022/03/15 07:13:08;;;;;;;51.73;29.65;;;;;;;5.13;67.94;102047.47;1642394;85;26347;-77
2022/03/15 07:15:34;;;;;;;52.13;32.28;;;;;;;5.22;67.96;102048.11;1621448;87;25799;-78
2022/03/15 07:18:02;;;;;;;50.50;29.37;;;;;;;5.32;68.08;102050.41;1652204;85;26011;-78
2022/03/15 07:20:29;;;;;;;49.88;28.95;;;;;;;5.41;67.81;102051.52;1642275;85;26299;-78
2022/03/15 07:22:55;;;;;;;52.30;31.02;;;;;;;5.51;67.83;102050.34;1643589;85;28005;-78
2022/03/15 07:25:22;;;;;;;47.93;30.27;;;;;;;5.59;67.71;102054.09;1645593;85;25928;-79
2022/03/15 07:27:49;;;;;;;50.08;29.65;;;;;;;5.68;67.66;102050.72;1641574;85;26013;-78
2022/03/15 07:30:15;;;;;;;44.60;27.07;;;;;;;5.77;67.64;102049.16;1646928;85;26364;-79
2022/03/15 07:32:42;;;;;;;44.38;27.55;;;;;;;5.87;67.90;102051.47;1646435;85;25866;-78
2022/03/15 07:35:09;;;;;;;64.97;40.78;;;;;;;5.95;67.81;102057.03;1626226;87;28228;-79
2022/03/15 07:37:36;;;;;;;47.62;31.82;;;;;;;6.03;68.21;102055.95;1648438;85;25356;-78
2022/03/15 07:40:04;;;;;;;47.98;32.08;;;;;;;6.10;67.98;102055.81;1646443;85;25950;-77
2022/03/15 07:42:30;;;;;;;39.70;24.32;;;;;;;6.16;68.17;102045.52;1647296;85;25960;-79
2022/03/15 07:44:57;;;;;;;39.20;23.00;;;;;;;6.23;68.23;102053.39;1645886;85;25828;-78
2022/03/15 07:47:24;;;;;;;33.35;23.10;;;;;;;6.29;68.45;102053.87;1628183;87;27509;-77
2022/03/15 07:49:51;;;;;;;38.83;25.37;;;;;;;6.36;68.61;102046.58;1616826;87;25982;-78
2022/03/15 07:52:17;;;;;;;41.42;23.90;;;;;;;6.41;68.70;102054.20;1636904;86;26448;-77
2022/03/15 07:54:44;;;;;;;38.23;24.47;;;;;;;6.46;68.49;102052.02;1645147;85;26603;-78
2022/03/15 07:57:10;;;;;;;35.68;21.52;;;;;;;6.48;68.12;102063.38;1645290;85;25807;-78
2022/03/15 07:59:37;;;;;;;39.73;24.05;;;;;;;6.47;68.47;102057.20;1645589;85;28408;-80
2022/03/15 08:02:04;;;;;;;37.20;23.65;;;;;;;6.49;68.41;102065.91;1626125;87;25904;-80
2022/03/15 08:04:30;;;;;;;33.85;21.93;;;;;;;6.48;68.28;102070.86;1645092;85;25894;-77
2022/03/15 08:06:56;;;;;;;41.60;24.87;;;;;;;6.47;68.34;102071.84;1612244;87;25807;-78
2022/03/15 08:09:22;;;;;;;38.42;24.55;;;;;;;6.45;68.19;102079.59;1644898;85;25911;-77
2022/03/15 08:11:49;;;;;;;37.67;24.90;;;;;;;6.45;68.28;102080.45;1643219;85;27479;-79
2022/03/15 08:14:15;;;;;;;36.55;23.30;;;;;;;6.50;68.48;102082.73;1645924;85;25958;-78
2022/03/15 08:16:41;;;;;;;37.05;24.37;;;;;;;6.53;68.46;102086.46;1646903;85;25559;-77
2022/03/15 08:19:09;;;;;;;36.45;22.07;;;;;;;6.58;68.49;102083.81;1642454;85;26665;-78
2022/03/15 08:21:36;;;;;;;41.08;23.83;;;;;;;6.62;68.59;102083.06;1645057;85;26629;-78
2022/03/15 08:24:02;;;;;;;42.00;24.85;;;;;;;6.66;68.52;102078.69;1606895;87;28833;-78
2022/03/15 08:26:28;;;;;;;39.70;24.18;;;;;;;6.70;68.66;102069.48;1649131;85;25946;-77
2022/03/15 08:28:54;;;;;;;41.83;25.30;;;;;;;6.77;68.63;102066.68;1644481;85;25969;-77
2022/03/15 08:31:21;;;;;;;41.20;25.15;;;;;;;6.84;68.64;102073.68;1643349;86;26482;-76
2022/03/15 08:33:47;;;;;;;45.00;25.52;;;;;;;6.90;68.87;102065.17;1630223;87;25451;-78
2022/03/15 08:38:43;;;;;;;40.73;26.23;;;;;;;7.12;68.81;102059.72;1812284;78;25871;-78
2022/03/15 08:41:09;;;;;;;38.55;25.02;;;;;;;7.12;68.58;102056.23;1775445;79;26104;-80
2022/03/15 08:43:36;;;;;;;49.33;31.65;;;;;;;7.16;68.59;102058.52;1752102;80;27529;-78
2022/03/15 08:46:02;;;;;;;43.83;27.77;;;;;;;7.20;68.64;102057.28;1749853;81;25951;-77
2022/03/15 08:48:31;;;;;;;44.50;27.60;;;;;;;7.24;68.50;102058.70;1744498;81;25821;-78
2022/03/15 08:51:00;;;;;;;42.13;27.45;;;;;;;7.29;68.64;102060.98;1742825;81;25947;-77
2022/03/15 08:53:26;;;;;;;45.30;27.22;;;;;;;7.35;68.47;102054.66;1746883;81;26412;-76
2022/03/15 08:55:53;;;;;;;36.55;24.98;;;;;;;7.43;68.44;102049.50;1742858;81;27426;-76
2022/03/15 08:58:19;;;;;;;44.18;25.95;;;;;;;7.51;68.31;102051.02;1747939;81;26571;-78
2022/03/15 09:00:45;;;;;;;39.40;26.10;;;;;;;7.54;68.13;102053.43;1749577;81;25293;-77
2022/03/15 09:03:12;;;;;;;40.25;24.65;;;;;;;7.59;68.46;102054.38;1743827;80;25923;-78
2022/03/15 09:05:38;;;;;;;34.70;24.30;;;;;;;7.65;68.34;102053.84;1746729;81;26493;-77
2022/03/15 09:08:05;;;;;;;42.05;26.20;;;;;;;7.70;68.46;102052.93;1744327;81;28475;-78
2022/03/15 09:10:32;;;;;;;42.08;26.00;;;;;;;7.76;68.35;102049.25;1750251;81;26618;-76
2022/03/15 09:13:00;;;;;;;38.60;25.57;;;;;;;7.84;68.38;102043.26;1745241;80;25731;-77
2022/03/15 09:15:26;;;;;;;41.15;25.23;;;;;;;7.91;68.69;102049.76;1741042;81;25783;-76
2022/03/15 09:17:53;;;;;;;31.90;21.93;;;;;;;7.98;68.28;102049.55;1746954;81;25866;-76
2022/03/15 09:20:19;;;;;;;38.13;24.35;;;;;;;8.05;68.49;102050.70;1749986;81;27623;-80
2022/03/15 09:22:45;;;;;;;37.73;22.62;;;;;;;8.12;68.50;102047.86;1742505;81;25842;-78
2022/03/15 09:25:12;;;;;;;37.63;23.47;;;;;;;8.25;68.84;102048.95;1745518;81;25798;-76
2022/03/15 09:27:38;;;;;;;39.03;24.85;;;;;;;8.37;69.16;102051.40;1746752;81;25782;-78
2022/03/15 09:30:06;;;;;;;35.50;23.22;;;;;;;8.46;68.73;102047.91;1745767;81;25965;-77
2022/03/15 09:32:32;;;;;;;35.38;22.95;;;;;;;8.54;68.97;102049.39;1748005;80;28309;-78
2022/03/15 09:34:58;;;;;;;33.58;21.25;;;;;;;8.65;69.33;102048.91;1747982;81;26300;-80
2022/03/15 09:37:24;;;;;;;40.60;25.62;;;;;;;8.71;69.62;102050.53;1743350;81;25558;-77
2022/03/15 09:39:53;;;;;;;40.48;25.08;;;;;;;8.74;69.42;102061.44;1745979;81;25803;-77
2022/03/15 09:42:22;;;;;;;40.95;27.02;;;;;;;8.79;69.29;102048.52;1750576;80;25751;-76
2022/03/15 09:44:49;;;;;;;38.38;25.60;;;;;;;8.86;69.47;102046.95;1721405;81;28099;-75
2022/03/15 09:47:17;;;;;;;42.48;27.60;;;;;;;8.90;69.18;102047.02;1751631;81;25949;-76
2022/03/15 09:49:45;;;;;;;38.13;26.35;;;;;;;8.91;69.24;102050.05;1750266;81;25950;-77
2022/03/15 09:52:12;;;;;;;37.78;24.72;;;;;;;8.98;69.44;102049.33;1749166;80;25791;-76
2022/03/15 09:54:39;;;;;;;37.73;25.97;;;;;;;9.04;69.13;102056.81;1747618;81;25911;-77
2022/03/15 09:57:07;;;;;;;41.18;25.43;;;;;;;9.07;68.97;102055.17;1753264;81;27440;-77
2022/03/15 09:59:34;;;;;;;40.80;27.45;;;;;;;9.08;68.75;102054.20;1747768;81;26221;-76
2022/03/15 10:02:00;;;;;;;41.05;26.55;;;;;;;9.11;68.83;102049.89;1750794;80;25945;-76
2022/03/15 10:04:28;;;;;;;43.08;28.57;;;;;;;9.20;69.03;102042.84;1749740;81;25956;-77
2022/03/15 10:06:55;;;;;;;41.23;27.02;;;;;;;9.27;68.73;102035.47;1744132;81;26230;-79
2022/03/15 10:09:22;;;;;;;36.68;25.37;;;;;;;9.32;68.71;102033.70;1750645;81;27458;-76
2022/03/15 10:11:50;;;;;;;37.25;25.50;;;;;;;9.34;68.15;102033.06;1747210;81;25826;-77
2022/03/15 10:14:19;;;;;;;36.48;25.88;;;;;;;9.36;68.17;102029.75;1751930;80;25833;-78
2022/03/15 10:16:45;;;;;;;39.50;26.73;;;;;;;9.37;68.21;102030.08;1748689;81;25803;-78
2022/03/15 10:19:14;;;;;;;35.35;24.32;;;;;;;9.40;68.27;102036.49;1746356;81;26064;-77
2022/03/15 10:21:51;;;;;;;36.98;25.43;;;;;;;9.39;68.03;102032.64;1705186;83;27660;-76
2022/03/15 10:24:22;;;;;;;34.90;24.52;;;;;;;9.35;67.76;102025.38;1667387;84;26141;-78
2022/03/15 10:26:51;;;;;;;37.23;26.23;;;;;;;9.33;67.94;102030.88;1693727;84;25751;-78
2022/03/15 10:29:19;;;;;;;40.33;26.82;;;;;;;9.36;68.06;102026.22;1694332;84;25800;-76
2022/03/15 10:31:46;;;;;;;38.58;26.52;;;;;;;9.42;68.29;102019.81;1696175;84;25905;-76
2022/03/15 10:34:16;;;;;;;37.55;25.72;;;;;;;9.48;68.51;102012.53;1698706;82;27448;-78
2022/03/15 10:36:47;;;;;;;35.17;24.47;;;;;;;9.52;67.98;102012.59;1695312;84;26528;-80
2022/03/15 10:39:16;;;;;;;35.35;23.87;;;;;;;9.56;67.95;102007.81;1690485;84;25993;-78
2022/03/15 10:41:48;;;;;;;36.08;25.12;;;;;;;9.59;68.00;102003.48;1692475;84;25657;-81
2022/03/15 10:44:24;;;;;;;38.88;26.73;;;;;;;9.58;67.93;102010.66;1687945;83;26537;-77
2022/03/15 10:47:12;;;;;;;37.17;24.05;;;;;;;9.59;68.10;102001.66;1693347;84;27470;-76
2022/03/15 10:49:54;;;;;;;35.05;24.65;;;;;;;9.71;68.41;102005.02;1693062;84;26462;-77
2022/03/15 10:52:40;;;;;;;32.45;23.70;;;;;;;9.84;68.15;101997.46;1693510;82;25890;-77
2022/03/15 10:55:22;;;;;;;39.27;25.80;;;;;;;9.91;67.76;101999.91;1690847;83;25722;-78
2022/03/15 10:58:00;;;;;;;35.52;25.90;;;;;;;9.89;67.36;101997.88;1686070;84;25789;-78
2022/03/15 11:00:30;;;;;;;40.83;27.07;;;;;;;9.90;67.36;101998.23;1693233;84;28218;-78
2022/03/15 11:02:57;;;;;;;67.90;38.65;;;;;;;9.99;67.87;101987.46;1690435;83;25868;-77
2022/03/15 11:05:38;;;;;;;51.08;29.15;;;;;;;10.11;67.76;101981.94;1693091;84;25860;-80
2022/03/15 11:08:14;;;;;;;39.35;26.37;;;;;;;10.20;67.59;101973.02;1690930;84;25966;-78
2022/03/15 11:10:47;;;;;;;35.98;24.65;;;;;;;10.29;67.29;101979.63;1688136;84;25784;-78
2022/03/15 11:13:13;;;;;;;33.53;22.82;;;;;;;10.37;66.90;101974.34;1693736;83;26918;-79
2022/03/15 11:15:48;;;;;;;33.10;24.37;;;;;;;10.41;66.48;101976.25;1690027;84;26723;-78
2022/03/15 11:18:19;;;;;;;40.90;26.77;;;;;;;10.41;65.88;101971.73;1692688;84;25826;-77
2022/03/15 11:20:49;;;;;;;44.80;29.70;;;;;;;10.40;66.05;101966.52;1692140;84;26171;-78
2022/03/15 11:23:17;;;;;;;42.97;31.07;;;;;;;10.39;66.03;101967.00;1690751;83;25764;-77